Maynardville, TN (37807)

5:21 PM EST on December 06, 2016 (GMT -0500)
Plainview (Condon), Tennessee | | Change Station

Elev 1132 ft 36.20 °N, 83.80 °W | Updated 46 seconds ago

Rain
Rain
53.0 °F
Feels Like 53.0 °F
N
1.0
Wind Variable Wind from SW
Gusts 1.0 mph

Today
High -- | Low -- °F
--% Chance of Precip.
Yesterday
High -- | Low -- °F
Precip. -- in
Pressure 29.78 in
Visibility 3.0 miles
Clouds Overcast 1900 ft
Dew Point 52 °F
Humidity 97%
Rainfall 1.30 in
Snow Depth Not available.
7:32 AM 5:20 PM
Waxing Crescent, 45% visible
METAR K1A6 062215Z AUTO 00000KT 3SM RA OVC019 11/11 A2978 RMK AO2 T01050105
Pressure 29.78 in
Visibility 3.0 miles
Clouds Overcast 1900 ft
Dew Point 52 °F
Humidity 97%
Rainfall 1.30 in
Snow Depth Not available.
7:32 AM 5:20 PM
Waxing Crescent, 45% visible
METAR K1A6 062215Z AUTO 00000KT 3SM RA OVC019 11/11 A2978 RMK AO2 T01050105

10-Day Weather Forecast

Almanac

Astronomy

Dec. 06, 2016 Rise Set
Actual Time
Civil Twilight
Nautical Twilight
Astronomical Twilight
Moon
Length of Visible Light
Length of Day
Tomorrow will be .
, % of the Moon is Illuminated

Today's Extremes

State Highs State Lows

Community

WunderPhotos

Upload Photos

1,956,038 photos uploaded!

WunderBlog® & News

Nearby

Air Quality

  Air Quality AQ Index Pollutant
Not available.

Snow Depth

Station Depth Elevation

Earthquake Activity

City Distance Mag. Time & Date
Minimum magnitude displayed is 2.5.

Coastal Water Temperatures

Place Temperature

Stations

Nearby Weather Stations

Station Location Temp. Windchill Dew Point Humidity Wind Precip. Elev Updated Type
                   

Watches & Warnings

There are currently no watches in effect.